Flight Track Log - Related Links

Times and Time Zones

All times are in EDT time to prevent confusion due to time zone crossing. See the LIA553 flight status page for this flight to view local times or setup timezone preferences in your user account.

Time Position Orientation Groundspeed Altitude Reporting Facility
EDT Latitude Longitude Course Direction KTS MPH feet Rate Location/Type
Fri 03:20:51 PM 18.3333 -64.9833 180° South 150 173 900  Level San Center
Fri 03:21:51 PM 18.3000 -64.9833 180° South 150 173 2,100 1,300 Climbing San Center
Fri 03:22:51 PM 18.2833 -64.9333 109° East 150 173 3,500 1,289 Climbing San Center
Fri 03:23:52 PM 18.2667 -64.9000 118° Southeast 160 184 4,700 1,240 Climbing San Center
Fri 03:24:52 PM 18.2667 -64.8500 90° East 160 184 6,000 1,200 Climbing San Center
Fri 03:25:52 PM 18.2667 -64.8000 90° East 160 184 7,100 1,041 Climbing San Center
Fri 03:26:53 PM 18.2667 -64.7500 90° East 190 219 8,100 942 Climbing San Center
Fri 03:27:53 PM 18.2833 -64.7000 71° East 190 219 9,000 450 Climbing San Center
Fri 03:28:53 PM 18.2833 -64.6333 90° East 220 253 9,000  Level San Center
Fri 03:29:54 PM 18.3167 -64.5667 62° Northeast 250 288 9,000  Level San Center
Fri 03:30:54 PM 18.3167 -64.5000 90° East 240 276 9,000  Level San Center
Fri 03:31:54 PM 18.3167 -64.4167 90° East 250 288 9,000  Level San Center
Fri 03:32:55 PM 18.3333 -64.3500 75° East 250 288 9,000  Level San Center
Fri 03:33:55 PM 18.3333 -64.2667 90° East 260 299 9,000  Level San Center
Fri 03:34:55 PM 18.3333 -64.2000 90° East 250 288 9,000 950 Level San Center
Fri 03:35:55 PM 18.3000 -64.1500 125° Southeast 200 230 10,900 1,350 Climbing San Center
Fri 03:36:55 PM 18.2833 -64.1000 109° East 200 230 11,700 843 Climbing San Center
Fri 03:37:56 PM 18.2667 -64.0333 105° East 200 230 12,600 1,140 Climbing San Center
Fri 03:38:56 PM 18.2333 -63.9833 125° Southeast 180 207 14,000 1,091 Climbing San Center
Fri 03:39:57 PM 18.2167 -63.9333 109° East 180 207 14,800 645 Climbing San Center
Fri 03:40:57 PM 18.2000 -63.8833 109° East 190 219 15,300 600 Climbing San Center
Fri 03:41:57 PM 18.1833 -63.8333 109° East 200 230 16,000 645 Climbing San Center
Fri 03:42:58 PM 18.1500 -63.7833 125° Southeast 210 242 16,600 496 Climbing San Center
Fri 03:43:58 PM 18.1333 -63.7167 105° East 220 253 17,000 200 Climbing San Center
Fri 03:44:58 PM 18.1000 -63.6500 118° Southeast 250 288 17,000  Level San Center
Fri 03:45:58 PM 18.0667 -63.5833 118° Southeast 250 288 17,000  Level San Center
Fri 03:46:59 PM 18.0500 -63.5167 105° East 260 299 17,000  Level San Center
Fri 03:47:59 PM 18.0167 -63.4500 118° Southeast 260 299 17,000  Level San Center
Fri 03:48:59 PM 17.9833 -63.3667 113° Southeast 270 311 17,000  Level San Center
Fri 03:50:00 PM 17.9500 -63.3000 118° Southeast 270 311 17,000  Level San Center
Fri 03:51:00 PM 17.9167 -63.2333 118° Southeast 270 311 17,000  Level San Center
Fri 03:52:00 PM 17.9000 -63.1667 105° East 270 311 17,000  Level San Center
Fri 03:53:01 PM 17.8667 -63.0833 113° Southeast 270 311 17,000  Level San Center
Fri 03:54:01 PM 17.8333 -63.0167 118° Southeast 260 299 17,000  Level San Center
Fri 03:56:02 PM 17.7667 -62.8833 118° Southeast 270 311 17,000  Level San Center
Fri 03:57:02 PM 17.7500 -62.8000 102° East 260 299 17,000  Level San Center
Fri 03:58:02 PM 17.7167 -62.7333 118° Southeast 260 299 17,000  Level San Center
Fri 03:59:02 PM 17.6833 -62.6667 118° Southeast 270 311 17,000  Level San Center
Fri 04:00:03 PM 17.6500 -62.6000 118° Southeast 260 299 17,000  Level San Center
Fri 04:02:00 PM 17.7681 -62.6965 322° Northwest  Level Estimated
Fri 04:09:00 PM 18.1916 -63.0442 322° Northwest  Level Estimated
Fri 04:10:00 PM 18.2048 -63.0551 322° Northwest  Level Estimated
Fri 04:11:00 PM 18.2048 -63.0551 316° Northwest  Level Estimated
Fri 04:12:00 PM 18.2048 -63.0551 316° Northwest  Level Estimated
Fri 04:13:00 PM 18.2048 -63.0551 316° Northwest  Level Estimated
Fri 04:14:00 PM 18.2048 -63.0551 316° Northwest  Level Estimated
Fri 04:15:00 PM 18.2048 -63.0551 316° Northwest  Level Estimated
Fri 04:16:00 PM 18.2048 -63.0551 316° Northwest  Level Estimated
Fri 04:17:00 PM 18.2048 -63.0551 316° Northwest  Level Estimated
Fri 04:18:00 PM 18.2048 -63.0551 316° Northwest  Level Estimated
Fri 04:19:00 PM 18.2048 -63.0551 316° Northwest  Level Estimated
Fri 04:20:00 PM 18.2048 -63.0551 316° Northwest  Level Estimated

Login

Don't have an account? Register now (free) for customized features, flight alerts, and more!